x

South Hecate Strait (46185) Wave Buoy

5:00pm - Thu 18th Dec 2014 All times are PST. -8 hours from GMT.

  • Sig Wave height 20.0ft
  • Peak Period 12s
  • Wind
    43mph, 54mph gusts
  • Sea Temp 51°f
  • Air Temp 49°f
  • Sea Pressure 990.7mb
  • South Hecate Strait
  • South Hecate Strait

More Historic Weather Station data

Upgrade to MSW Pro to gain access to the past 30 days of data for over 8000 Wavebouys and Weather Stations around the globe.

Join Pro

Comparision Forecast

View Surf forecast
   
Thu 12/18 5:00pm 20ft 12s 43 54 mph 990.7mb 51f 49f
4:00pm 18ft 12s 36 49 mph 991.2mb 51f 48f
3:00pm 18ft 11s 34 40 mph 991.8mb 51f 47f
2:00pm 22.5ft 10s 40 49 mph 992.5mb 51f 49f
1:00pm 19.5ft 11s 45 58 mph 993.3mb 51f 49f
12:00pm 20ft 10s 45 56 mph 994.2mb 51f 48f
11:00am 17.5ft 10s 45 58 mph 995mb 51f 48f
10:00am 17.5ft 8s 43 54 mph 995.8mb 51f 48f
9:00am 17ft 10s 40 54 mph 995.8mb 51f 49f
8:00am 13.5ft 9s 40 54 mph 996.5mb 51f 49f
7:00am 14ft 8s 40 49 mph 997.7mb 51f 49f
6:00am 12.5ft 8s 38 49 mph 998.9mb 51f 49f
5:00am 12ft 8s 38 49 mph 1000.3mb 51f 48f
4:00am 12ft 8s 36 47 mph 1001.6mb 51f 49f
3:00am 11ft 8s 36 43 mph 1002.5mb 51f 49f
2:00am 10ft 7s 36 43 mph 1003.1mb 51f 49f
1:00am 9ft 7s 34 43 mph 1003.8mb 51f 48f
12:00am 8.5ft 7s 34 40 mph 1004.3mb 51f 48f
Wed 12/17 11:00pm 8ft 6s 34 40 mph 1004.8mb 51f 49f
10:00pm 6.5ft 6s 31 38 mph 1005.5mb 51f 48f
9:00pm 6.5ft 7s 29 36 mph 1006mb 51f 48f
8:00pm 6.5ft 5s 29 36 mph 1006.3mb 51f 48f
7:00pm 6ft 5s 27 31 mph 1006.7mb 51f 49f
6:00pm 5.5ft 4s 27 34 mph 1007.1mb 51f 49f
5:00pm 5ft 4s 25 29 mph 1007.6mb 51f 49f
4:00pm 5ft 4s 20 27 mph 1007.6mb 51f 48f
3:00pm 4.5ft 4s 22 27 mph 1008mb 51f 47f
2:00pm 4ft 4s 20 22 mph 1008mb 51f 48f
1:00pm 4ft 8s 18 22 mph 1008.3mb 51f 47f
12:00pm 4ft 10s 18 22 mph 1008.6mb 51f 47f
11:00am 4ft 8s 18 20 mph 1008.6mb 51f 47f
10:00am 3.5ft 8s 16 18 mph 1008.5mb 51f 47f
9:00am 4ft 10s 13 18 mph 1008.1mb 51f 47f
8:00am 3.5ft 11s 16 18 mph 1008mb 51f 46f
7:00am 3.5ft 9s 13
mph
1008.4mb 51f 47f
6:00am 3.5ft 10s 9 13 mph 1008.4mb 51f 46f
5:00am 4ft 10s 11 16 mph 1008.2mb 51f 46f
4:00am 4ft 9s 9 13 mph 1007.9mb 51f 46f
3:00am 4.5ft 10s 11 13 mph 1007.7mb 51f 46f
2:00am 4.5ft 14s 11 13 mph 1007.1mb 51f 46f
1:00am 4.5ft 11s 11 13 mph 1006.5mb 51f 46f
12:00am 4.5ft 11s 4 7 mph 1006.5mb 51f 46f
Tue 12/16 11:00pm 5ft 10s 7 9 mph 1006.8mb 51f 46f
10:00pm 5ft 9s 9 13 mph 1006.5mb 51f 46f
9:00pm 5.5ft 10s 7 9 mph 1006.3mb 51f 46f
8:00pm 6ft 8s 4 7 mph 1006.2mb 50f 46f
7:00pm 6ft 10s 4 7 mph 1006mb 50f 46f
6:00pm 7.5ft 10s 2 4 mph 1006.1mb 51f 46f
5:00pm 8ft 8s 2 7 mph 1006.2mb 50f 45f
4:00pm 8ft 10s 4 7 mph 1006mb 51f 46f
3:00pm 8ft 10s 2 4 mph 1005.7mb 51f 46f
2:00pm 8ft 8s 9 11 mph 1004.8mb 51f 46f
1:00pm 8ft 9s 9 13 mph 1004.8mb 51f 46f
12:00pm 9ft 9s 9 11 mph 1004.5mb 51f 46f
11:00am 8.5ft 9s 9 13 mph 1004.5mb 51f 45f
10:00am 9ft 9s 9 13 mph 1004.1mb 51f 45f
9:00am 9.5ft 8s 9 13 mph 1003.9mb 51f 46f
8:00am 10ft 8s 31 40 mph 1002.5mb 51f 48f
7:00am 11.5ft 11s 34 43 mph 1002.1mb 51f 49f
6:00am 12ft 8s 34 40 mph 1002.3mb 51f 48f
5:00am 12ft 10s 36 40 mph 1002.1mb 51f 48f
4:00am 11ft 10s 31 40 mph 1002.3mb 51f 48f
3:00am 12ft 10s 25 31 mph 1003.5mb 51f 47f
2:00am 11.5ft 8s 36 45 mph 1002.7mb 51f 48f
1:00am 12.5ft 9s 36 43 mph 1003mb 51f 47f
12:00am 12.5ft 10s 36 45 mph 1003.1mb 51f 48f
Mon 12/15 11:00pm 13ft 11s 34 43 mph 1003.2mb 51f 48f
10:00pm 13ft 10s 34 40 mph 1003.3mb 51f 48f
9:00pm 13ft 9s 36 40 mph 1003.2mb 51f 48f
8:00pm 13.5ft 8s 29 40 mph 1003.5mb 51f 48f
7:00pm 14ft 11s 31 45 mph 1003.4mb 51f 48f
6:00pm 15ft 10s 38 47 mph 1003mb 51f 49f
5:00pm 15ft 12s 34 43 mph 1003.3mb 51f 49f
4:00pm 15.5ft 12s 36 47 mph 1003.2mb 51f 49f
3:00pm 15.5ft 12s 38 47 mph 1003.1mb 51f 49f
2:00pm 15ft 12s 38 49 mph 1002.9mb 51f 49f
1:00pm 14.5ft 12s 38 47 mph 1002.9mb 51f 49f
12:00pm 12.5ft 12s 38 49 mph 1002.9mb 51f 50f
11:00am 13ft 12s 29 34 mph 1003.7mb 51f 50f
10:00am 12ft 12s 38 47 mph 1003.3mb 51f 51f
9:00am 11.5ft 12s 31 36 mph 1003.1mb 51f 49f
8:00am 12ft 12s 29 36 mph 1003.1mb 51f 49f
7:00am 11ft 11s 29 34 mph 1003.6mb 51f 49f
6:00am 11ft 11s 27 34 mph 1004.2mb 51f 49f
5:00am 10.5ft 11s 27 34 mph 1004.8mb 51f 49f
4:00am 11ft 12s 27 31 mph 1005.4mb 51f 49f